createdAt,value
2018-07-04T00:02:09.936Z,16.10
2018-07-04T00:04:49.862Z,16.10
2018-07-04T00:07:29.866Z,16.00
2018-07-04T00:10:09.879Z,16.00
2018-07-04T00:12:49.940Z,15.90
2018-07-04T00:15:30.053Z,15.90
2018-07-04T00:18:10.271Z,15.80
2018-07-04T00:20:50.530Z,15.70
2018-07-04T00:23:30.689Z,15.70
2018-07-04T00:26:10.968Z,15.70
2018-07-04T00:28:51.059Z,15.70
2018-07-04T00:31:30.978Z,15.60
2018-07-04T00:34:11.161Z,15.60
2018-07-04T00:36:51.353Z,15.50
2018-07-04T00:39:31.674Z,15.50
2018-07-04T00:42:11.756Z,15.40
2018-07-04T00:44:51.819Z,15.40
2018-07-04T00:47:31.927Z,15.40
2018-07-04T00:50:12.195Z,15.30
2018-07-04T00:52:52.331Z,15.30
2018-07-04T00:55:35.758Z,15.30
2018-07-04T00:58:16.115Z,15.30
2018-07-04T01:00:56.139Z,15.20
2018-07-04T01:03:36.272Z,15.10
2018-07-04T01:06:16.819Z,15.10
2018-07-04T01:08:57.102Z,15.10
2018-07-04T01:11:37.287Z,15.00
2018-07-04T01:14:17.391Z,14.90
2018-07-04T01:16:57.602Z,14.90
2018-07-04T01:19:38.125Z,14.90
2018-07-04T01:22:18.319Z,15.00
2018-07-04T01:24:58.610Z,15.00
2018-07-04T01:27:38.751Z,14.90
2018-07-04T01:30:18.810Z,14.90
2018-07-04T01:32:58.885Z,14.80
2018-07-04T01:35:38.856Z,14.70
2018-07-04T01:38:18.836Z,14.70
2018-07-04T01:40:58.944Z,14.60
2018-07-04T01:43:39.190Z,14.60
2018-07-04T01:46:19.373Z,14.60
2018-07-04T01:48:59.637Z,14.50
2018-07-04T01:51:39.822Z,14.40
2018-07-04T01:54:20.044Z,14.30
2018-07-04T01:56:59.960Z,14.30
2018-07-04T01:59:39.948Z,14.20
2018-07-04T02:02:20.174Z,14.20
2018-07-04T02:05:00.300Z,14.10
2018-07-04T02:07:40.359Z,14.10
2018-07-04T02:10:20.434Z,14.10
2018-07-04T02:13:00.624Z,14.00
2018-07-04T02:15:40.766Z,14.00
2018-07-04T02:18:21.199Z,14.00
2018-07-04T02:21:01.568Z,13.90
2018-07-04T02:23:41.795Z,13.90
2018-07-04T02:26:22.075Z,13.90
2018-07-04T02:29:02.334Z,13.90
2018-07-04T02:31:42.510Z,13.80
2018-07-04T02:34:26.050Z,13.80
2018-07-04T02:39:40.164Z,13.70
2018-07-04T02:42:20.292Z,13.70
2018-07-04T02:45:00.539Z,13.70
2018-07-04T02:47:40.624Z,13.70
2018-07-04T02:50:20.712Z,13.70
2018-07-04T02:53:00.803Z,13.70
2018-07-04T02:55:40.648Z,13.60
2018-07-04T02:58:20.796Z,13.60
2018-07-04T03:01:01.048Z,13.50
2018-07-04T03:03:41.176Z,13.50
2018-07-04T03:06:21.363Z,13.40
2018-07-04T03:09:01.569Z,13.40
2018-07-04T03:11:41.767Z,13.40
2018-07-04T03:14:21.844Z,13.40
2018-07-04T03:17:02.044Z,13.40
2018-07-04T03:19:42.284Z,13.40
2018-07-04T03:22:22.369Z,13.30
2018-07-04T03:25:02.602Z,13.40
2018-07-04T03:27:42.663Z,13.40
2018-07-04T03:30:22.768Z,13.40
2018-07-04T03:33:04.124Z,13.40
2018-07-04T03:35:44.095Z,13.40
2018-07-04T03:38:24.223Z,13.40
2018-07-04T03:41:04.363Z,13.40
2018-07-04T03:43:44.616Z,13.40
2018-07-04T03:46:24.802Z,13.40
2018-07-04T03:49:04.871Z,13.40
2018-07-04T03:51:45.139Z,13.40
2018-07-04T03:54:25.277Z,13.40
2018-07-04T03:57:05.415Z,13.40
2018-07-04T03:59:45.514Z,13.40
2018-07-04T04:02:25.499Z,13.40
2018-07-04T04:05:05.816Z,13.40
2018-07-04T04:07:45.944Z,13.40
2018-07-04T04:10:25.970Z,13.40
2018-07-04T04:13:06.167Z,13.50
2018-07-04T04:15:46.259Z,13.50
2018-07-04T04:18:26.355Z,13.50
2018-07-04T04:21:06.522Z,13.60
2018-07-04T04:23:46.719Z,13.50
2018-07-04T04:26:26.995Z,13.60
2018-07-04T04:29:07.219Z,13.60
2018-07-04T04:31:47.250Z,13.60
2018-07-04T04:37:01.727Z,13.70
2018-07-04T04:39:41.800Z,13.70
2018-07-04T04:42:22.064Z,13.80
2018-07-04T04:45:02.203Z,13.80
2018-07-04T04:47:42.236Z,13.90
2018-07-04T04:50:22.339Z,13.90
2018-07-04T04:53:02.542Z,14.00
2018-07-04T04:55:42.624Z,14.10
2018-07-04T04:58:22.819Z,14.10
2018-07-04T05:01:02.823Z,14.20
2018-07-04T05:03:43.286Z,14.30
2018-07-04T05:06:23.595Z,14.30
2018-07-04T05:09:03.986Z,14.40
2018-07-04T05:11:44.001Z,14.50
2018-07-04T05:14:24.078Z,14.60
2018-07-04T05:17:03.954Z,14.70
2018-07-04T05:19:43.913Z,14.80
2018-07-04T05:22:23.863Z,14.90
2018-07-04T05:25:03.936Z,15.10
2018-07-04T05:27:44.255Z,15.20
2018-07-04T05:30:24.279Z,15.30
2018-07-04T05:33:04.131Z,15.40
2018-07-04T05:35:44.151Z,15.50
2018-07-04T05:38:24.500Z,15.60
2018-07-04T05:41:04.524Z,15.70
2018-07-04T05:43:44.716Z,15.80
2018-07-04T05:46:24.869Z,15.90
2018-07-04T05:49:05.121Z,16.10
2018-07-04T05:51:45.172Z,16.20
2018-07-04T05:54:30.419Z,16.30
2018-07-04T05:57:10.583Z,16.50
2018-07-04T05:59:50.953Z,16.60
2018-07-04T06:02:30.998Z,16.70
2018-07-04T06:05:10.904Z,16.90
2018-07-04T06:07:50.954Z,17.00
2018-07-04T06:10:31.070Z,17.10
2018-07-04T06:13:11.227Z,17.20
2018-07-04T06:16:03.964Z,17.40
2018-07-04T06:18:44.066Z,17.50
2018-07-04T06:21:24.107Z,17.60
2018-07-04T06:24:04.392Z,17.80
2018-07-04T06:26:44.552Z,17.80
2018-07-04T06:29:24.464Z,18.00
2018-07-04T06:32:04.755Z,18.10
2018-07-04T06:34:46.308Z,18.20
2018-07-04T06:37:26.540Z,18.30
2018-07-04T06:39:54.192Z,18.40
2018-07-04T06:42:21.910Z,18.50
2018-07-04T06:44:49.636Z,18.60
2018-07-04T06:47:17.305Z,18.70
2018-07-04T06:49:45.040Z,18.90
2018-07-04T06:52:13.351Z,18.90
2018-07-04T06:54:41.046Z,19.10
2018-07-04T06:57:08.752Z,19.20
2018-07-04T06:59:36.439Z,19.30
2018-07-04T07:02:07.713Z,19.40
2018-07-04T07:04:48.944Z,19.50
2018-07-04T07:07:28.802Z,19.60
2018-07-04T07:16:01.676Z,20.10
2018-07-04T07:18:41.744Z,20.20
2018-07-04T07:21:21.962Z,20.40
2018-07-04T07:24:02.046Z,20.50
2018-07-04T07:26:42.108Z,20.70
2018-07-04T07:29:22.385Z,20.80
2018-07-04T07:32:02.563Z,20.90
2018-07-04T07:34:42.796Z,20.90
2018-07-04T07:37:22.903Z,21.00
2018-07-04T07:40:02.959Z,21.10
2018-07-04T07:45:17.203Z,21.30
2018-07-04T07:47:57.264Z,21.40
2018-07-04T07:50:37.464Z,21.50
2018-07-04T07:53:17.460Z,21.50
2018-07-04T07:55:57.690Z,21.60
2018-07-04T07:58:37.812Z,21.70
2018-07-04T08:01:17.930Z,21.70
2018-07-04T08:03:58.256Z,21.80
2018-07-04T08:06:38.499Z,21.80
2018-07-04T08:09:18.739Z,21.90
2018-07-04T08:11:59.070Z,21.90
2018-07-04T08:14:39.275Z,21.90
2018-07-04T08:17:19.484Z,22.00
2018-07-04T08:22:33.581Z,22.00
2018-07-04T08:25:13.984Z,22.10
2018-07-04T08:27:54.198Z,22.10
2018-07-04T08:30:34.274Z,22.10
2018-07-04T08:33:14.309Z,22.20
2018-07-04T08:35:54.476Z,22.20
2018-07-04T08:38:35.251Z,22.20
2018-07-04T08:41:15.335Z,22.20
2018-07-04T08:43:55.322Z,22.20
2018-07-04T08:46:35.536Z,22.30
2018-07-04T08:49:15.691Z,22.40
2018-07-04T08:51:56.031Z,22.50
2018-07-04T08:54:36.052Z,22.70
2018-07-04T08:57:16.243Z,22.90
2018-07-04T08:59:56.345Z,23.00
2018-07-04T09:05:10.497Z,23.40
2018-07-04T09:07:50.742Z,23.60
2018-07-04T09:10:30.820Z,23.70
2018-07-04T09:13:11.078Z,23.90
2018-07-04T09:15:51.295Z,24.00
2018-07-04T09:18:32.285Z,24.20
2018-07-04T09:21:12.446Z,24.30
2018-07-04T09:23:52.531Z,24.50
2018-07-04T09:26:32.834Z,24.60
2018-07-04T09:29:14.699Z,24.70
2018-07-04T09:31:54.840Z,24.80
2018-07-04T09:34:34.947Z,25.00
2018-07-04T09:37:15.123Z,25.00
2018-07-04T09:39:55.156Z,25.10
2018-07-04T09:42:35.313Z,25.20
2018-07-04T09:45:15.551Z,25.30
2018-07-04T09:47:55.707Z,25.50
2018-07-04T09:50:35.970Z,25.50
2018-07-04T09:53:16.559Z,25.70
2018-07-04T09:55:56.724Z,25.80
2018-07-04T09:58:36.945Z,25.80
2018-07-04T10:01:24.169Z,25.90
2018-07-04T10:04:04.307Z,26.00
2018-07-04T10:06:45.046Z,26.00
2018-07-04T10:09:25.243Z,26.00
2018-07-04T10:12:07.338Z,26.10
2018-07-04T10:14:47.869Z,26.20
2018-07-04T10:17:27.914Z,26.30
2018-07-04T10:20:08.095Z,26.40
2018-07-04T10:22:50.529Z,26.50
2018-07-04T10:25:32.799Z,26.60
2018-07-04T10:28:12.923Z,26.70
2018-07-04T10:30:52.973Z,26.80
2018-07-04T10:33:33.206Z,26.90
2018-07-04T10:36:13.372Z,27.10
2018-07-04T10:38:53.368Z,27.10
2018-07-04T10:41:33.528Z,27.20
2018-07-04T10:44:13.660Z,27.30
2018-07-04T10:46:53.785Z,27.30
2018-07-04T10:49:34.035Z,27.30
2018-07-04T10:52:14.275Z,27.40
2018-07-04T10:54:54.491Z,27.40
2018-07-04T10:57:34.520Z,27.50
2018-07-04T11:00:14.588Z,27.50
2018-07-04T11:02:54.748Z,27.60
2018-07-04T11:05:34.808Z,27.60
2018-07-04T11:08:15.065Z,27.60
2018-07-04T11:10:55.248Z,27.70
2018-07-04T11:13:35.488Z,27.70
2018-07-04T11:16:15.656Z,27.80
2018-07-04T11:18:55.703Z,27.80
2018-07-04T11:21:35.725Z,27.90
2018-07-04T11:24:15.898Z,28.00
2018-07-04T11:26:56.023Z,28.10
2018-07-04T11:29:36.251Z,28.10
2018-07-04T11:32:16.367Z,28.20
2018-07-04T11:34:56.584Z,28.20
2018-07-04T11:37:36.628Z,28.30
2018-07-04T11:40:16.598Z,28.40
2018-07-04T11:42:56.681Z,28.40
2018-07-04T11:45:36.746Z,28.50
2018-07-04T11:48:04.459Z,28.70
2018-07-04T11:50:32.321Z,28.80
2018-07-04T11:53:15.050Z,29.00
2018-07-04T11:55:42.825Z,29.10
2018-07-04T11:58:10.617Z,29.20
2018-07-04T12:00:38.407Z,29.30
2018-07-04T12:03:14.891Z,29.40
2018-07-04T12:05:55.565Z,29.40
2018-07-04T12:08:23.334Z,29.50
2018-07-04T12:11:01.437Z,29.60
2018-07-04T12:13:29.631Z,29.60
2018-07-04T12:18:25.607Z,29.60
2018-07-04T12:20:53.315Z,29.60
2018-07-04T12:23:20.963Z,29.70
2018-07-04T12:25:48.679Z,29.70
2018-07-04T12:28:16.410Z,29.80
2018-07-04T12:30:44.098Z,29.90
2018-07-04T12:33:11.778Z,30.00
2018-07-04T12:35:39.516Z,30.10
2018-07-04T12:38:07.213Z,30.20
2018-07-04T12:40:34.939Z,30.30
2018-07-04T12:43:02.615Z,30.40
2018-07-04T12:45:30.331Z,30.40
2018-07-04T12:47:58.011Z,30.40
2018-07-04T12:50:26.558Z,30.50
2018-07-04T12:52:54.523Z,30.50
2018-07-04T12:55:36.317Z,30.60
2018-07-04T12:58:17.083Z,30.70
2018-07-04T13:00:57.338Z,30.80
2018-07-04T13:03:37.424Z,30.90
2018-07-04T13:06:17.796Z,31.10
2018-07-04T13:08:57.820Z,31.20
2018-07-04T13:11:38.015Z,31.30
2018-07-04T13:14:18.093Z,31.40
2018-07-04T13:16:58.135Z,31.50
2018-07-04T13:19:39.312Z,31.50
2018-07-04T13:22:19.387Z,31.50
2018-07-04T13:24:59.439Z,31.50
2018-07-04T13:27:39.647Z,31.50
2018-07-04T13:30:19.841Z,31.50
2018-07-04T13:33:00.688Z,31.50
2018-07-04T13:35:40.828Z,31.60
2018-07-04T13:38:21.560Z,31.60
2018-07-04T13:41:01.711Z,31.50
2018-07-04T13:43:41.799Z,31.60
2018-07-04T13:46:21.954Z,31.70
2018-07-04T13:49:02.146Z,31.70
2018-07-04T13:51:42.902Z,31.70
2018-07-04T13:54:23.064Z,31.70
2018-07-04T13:57:03.320Z,31.50
2018-07-04T13:59:43.335Z,31.50
2018-07-04T14:02:23.511Z,31.40
2018-07-04T14:05:03.900Z,31.30
2018-07-04T14:07:44.043Z,31.10
2018-07-04T14:10:24.258Z,30.90
2018-07-04T14:13:04.414Z,30.80
2018-07-04T14:15:45.669Z,30.70
2018-07-04T14:18:26.786Z,30.70
2018-07-04T14:21:07.006Z,30.50
2018-07-04T14:23:47.190Z,30.40
2018-07-04T14:26:27.337Z,30.20
2018-07-04T14:29:07.759Z,30.00
2018-07-04T14:31:47.907Z,29.90
2018-07-04T14:34:28.345Z,29.80
2018-07-04T14:37:08.575Z,29.70
2018-07-04T14:39:48.754Z,29.40
2018-07-04T14:42:28.881Z,29.30
2018-07-04T14:45:12.272Z,29.20
2018-07-04T14:47:52.515Z,29.10
2018-07-04T14:50:32.637Z,28.90
2018-07-04T14:53:12.776Z,28.80
2018-07-04T14:55:52.955Z,28.70
2018-07-04T14:58:33.136Z,28.70
2018-07-04T15:01:13.304Z,28.60
2018-07-04T15:03:53.332Z,28.50
2018-07-04T15:06:33.368Z,28.50
2018-07-04T15:09:13.478Z,28.50
2018-07-04T15:11:53.510Z,28.50
2018-07-04T15:14:33.659Z,28.50
2018-07-04T15:17:13.729Z,28.50
2018-07-04T15:19:54.023Z,28.50
2018-07-04T15:22:34.059Z,28.60
2018-07-04T15:25:14.604Z,28.60
2018-07-04T15:27:55.770Z,28.70
2018-07-04T15:30:35.974Z,28.70
2018-07-04T15:33:16.039Z,28.70
2018-07-04T15:35:56.164Z,28.70
2018-07-04T15:38:36.406Z,28.70
2018-07-04T15:41:17.048Z,28.70
2018-07-04T15:43:57.111Z,28.70
2018-07-04T15:46:37.079Z,28.70
2018-07-04T15:49:19.072Z,28.70
2018-07-04T15:52:00.304Z,28.70
2018-07-04T15:54:40.272Z,28.70
2018-07-04T15:57:20.474Z,28.60
2018-07-04T16:00:00.698Z,28.50
2018-07-04T16:02:40.949Z,28.50
2018-07-04T16:05:21.238Z,28.50
2018-07-04T16:08:01.296Z,28.50
2018-07-04T16:10:41.312Z,28.50
2018-07-04T16:13:21.312Z,28.40
2018-07-04T16:16:01.531Z,28.40
2018-07-04T16:18:41.591Z,28.30
2018-07-04T16:21:21.815Z,28.20
2018-07-04T16:24:01.815Z,28.10
2018-07-04T16:26:41.876Z,28.00
2018-07-04T16:29:22.106Z,27.90
2018-07-04T16:32:02.255Z,27.80
2018-07-04T16:34:42.243Z,27.80
2018-07-04T16:37:22.215Z,27.80
2018-07-04T16:40:02.588Z,27.70
2018-07-04T16:42:42.791Z,27.50
2018-07-04T16:45:23.024Z,27.40
2018-07-04T16:48:03.124Z,27.20
2018-07-04T16:50:43.765Z,27.00
2018-07-04T16:53:24.028Z,26.70
2018-07-04T16:56:04.416Z,26.40
2018-07-04T16:58:44.741Z,25.90
2018-07-04T17:01:31.699Z,25.50
2018-07-04T17:04:11.759Z,25.00
2018-07-04T17:06:51.935Z,24.50
2018-07-04T17:09:32.171Z,24.00
2018-07-04T17:12:12.271Z,23.60
2018-07-04T17:14:52.447Z,23.20
2018-07-04T17:17:32.719Z,22.90
2018-07-04T17:20:13.055Z,22.60
2018-07-04T17:22:53.305Z,22.40
2018-07-04T17:25:34.551Z,22.40
2018-07-04T17:28:14.728Z,22.30
2018-07-04T17:30:54.842Z,22.30
2018-07-04T17:33:34.824Z,22.30
2018-07-04T17:36:15.140Z,22.30
2018-07-04T17:41:29.379Z,22.30
2018-07-04T17:44:09.509Z,22.30
2018-07-04T17:46:49.636Z,22.30
2018-07-04T17:49:29.784Z,22.40
2018-07-04T17:52:09.987Z,22.40
2018-07-04T17:54:50.080Z,22.30
2018-07-04T17:57:30.267Z,22.30
2018-07-04T18:00:10.240Z,22.30
2018-07-04T18:02:50.347Z,22.30
2018-07-04T18:05:30.535Z,22.30
2018-07-04T18:10:44.657Z,22.40
2018-07-04T18:13:24.902Z,22.40
2018-07-04T18:16:05.000Z,22.40
2018-07-04T18:18:45.137Z,22.40
2018-07-04T18:21:27.350Z,22.40
2018-07-04T18:24:08.779Z,22.30
2018-07-04T18:26:49.234Z,22.30
2018-07-04T18:29:29.326Z,22.20
2018-07-04T18:32:09.437Z,22.20
2018-07-04T18:34:49.634Z,22.10
2018-07-04T18:37:30.404Z,22.10
2018-07-04T18:40:10.568Z,22.00
2018-07-04T18:42:50.776Z,22.00
2018-07-04T18:45:31.402Z,21.90
2018-07-04T18:48:11.529Z,21.90
2018-07-04T18:50:51.660Z,21.80
2018-07-04T18:53:31.812Z,21.80
2018-07-04T18:56:11.747Z,21.80
2018-07-04T18:58:52.219Z,21.70
2018-07-04T19:01:32.570Z,21.70
2018-07-04T19:04:12.710Z,21.60
2018-07-04T19:06:52.954Z,21.60
2018-07-04T19:09:34.286Z,21.60
2018-07-04T19:17:41.647Z,21.50
2018-07-04T19:20:21.796Z,21.40
2018-07-04T19:23:01.844Z,21.40
2018-07-04T19:25:42.065Z,21.30
2018-07-04T19:28:22.322Z,21.30
2018-07-04T19:31:03.123Z,21.30
2018-07-04T19:33:43.193Z,21.20
2018-07-04T19:36:24.008Z,21.20
2018-07-04T19:39:04.936Z,21.20
2018-07-04T19:41:45.447Z,21.20
2018-07-04T19:44:25.554Z,21.20
2018-07-04T19:47:05.652Z,21.10
2018-07-04T19:49:45.843Z,21.10
2018-07-04T19:52:25.798Z,21.10
2018-07-04T19:55:06.068Z,21.10
2018-07-04T19:57:48.404Z,21.00
2018-07-04T20:00:28.754Z,21.00
2018-07-04T20:03:08.851Z,21.00
2018-07-04T20:05:49.111Z,20.90
2018-07-04T20:08:29.349Z,20.90
2018-07-04T20:11:09.389Z,20.80
2018-07-04T20:13:49.415Z,20.70
2018-07-04T20:16:29.526Z,20.60
2018-07-04T20:19:09.808Z,20.60
2018-07-04T20:21:50.006Z,20.50
2018-07-04T20:24:29.986Z,20.50
2018-07-04T20:27:10.001Z,20.40
2018-07-04T20:29:50.294Z,20.40
2018-07-04T20:32:30.433Z,20.30
2018-07-04T20:35:10.999Z,20.30
2018-07-04T20:37:51.109Z,20.20
2018-07-04T20:40:31.199Z,20.10
2018-07-04T20:43:12.662Z,20.10
2018-07-04T20:45:55.258Z,20.00
2018-07-04T20:48:35.507Z,19.90
2018-07-04T20:51:15.566Z,19.90
2018-07-04T20:53:56.194Z,19.80
2018-07-04T20:56:36.217Z,19.70
2018-07-04T20:59:16.478Z,19.70
2018-07-04T21:01:56.751Z,19.60
2018-07-04T21:04:37.376Z,19.50
2018-07-04T21:07:17.792Z,19.50
2018-07-04T21:09:57.963Z,19.40
2018-07-04T21:12:38.123Z,19.30
2018-07-04T21:15:18.911Z,19.30
2018-07-04T21:20:33.079Z,19.30
2018-07-04T21:23:13.940Z,19.20
2018-07-04T21:25:53.966Z,19.20
2018-07-04T21:28:34.246Z,19.10
2018-07-04T21:31:14.455Z,19.00
2018-07-04T21:33:54.773Z,19.00
2018-07-04T21:39:09.411Z,18.90
2018-07-04T21:41:50.819Z,18.80
2018-07-04T21:44:30.923Z,18.80
2018-07-04T21:47:11.100Z,18.70
2018-07-04T21:49:51.347Z,18.70
2018-07-04T21:52:31.307Z,18.60
2018-07-04T21:55:11.493Z,18.60
2018-07-04T21:57:51.484Z,18.60
2018-07-04T22:03:05.680Z,18.60
2018-07-04T22:05:45.739Z,18.50
2018-07-04T22:08:26.008Z,18.50
2018-07-04T22:11:06.168Z,18.50
2018-07-04T22:13:46.362Z,18.50
2018-07-04T22:16:26.604Z,18.50
2018-07-04T22:19:06.715Z,18.40
2018-07-04T22:21:46.620Z,18.40
2018-07-04T22:24:26.680Z,18.40
2018-07-04T22:27:06.798Z,18.40
2018-07-04T22:29:46.938Z,18.40
2018-07-04T22:32:27.092Z,18.30
2018-07-04T22:35:07.414Z,18.30
2018-07-04T22:37:47.616Z,18.20
2018-07-04T22:40:28.467Z,18.20
2018-07-04T22:43:08.480Z,18.20
2018-07-04T22:45:48.636Z,18.10
2018-07-04T22:48:28.922Z,18.20
2018-07-04T22:51:09.008Z,18.10
2018-07-04T22:53:49.109Z,18.10
2018-07-04T22:56:29.231Z,18.10
2018-07-04T22:59:09.434Z,18.00
2018-07-04T23:01:49.638Z,18.00
2018-07-04T23:04:29.730Z,17.90
2018-07-04T23:07:09.775Z,17.90
2018-07-04T23:09:49.871Z,17.90
2018-07-04T23:12:30.183Z,17.80
2018-07-04T23:15:10.335Z,17.80
2018-07-04T23:17:50.435Z,17.80
2018-07-04T23:20:30.529Z,17.80
2018-07-04T23:23:10.718Z,17.80
2018-07-04T23:25:50.821Z,17.70
2018-07-04T23:28:31.019Z,17.70
2018-07-04T23:31:11.036Z,17.70
2018-07-04T23:33:51.094Z,17.70
2018-07-04T23:36:31.176Z,17.60
2018-07-04T23:39:11.332Z,17.60
2018-07-04T23:41:51.377Z,17.60
2018-07-04T23:44:31.624Z,17.60
2018-07-04T23:47:11.808Z,17.60
2018-07-04T23:49:51.991Z,17.50
2018-07-04T23:52:32.219Z,17.50
2018-07-04T23:55:12.174Z,17.40
2018-07-04T23:57:52.432Z,17.40
